sensor_id;sensor_type;location;lat;lon;timestamp;temperature;humidity
40289;DHT22;28991;52.028;5.526;2023-04-25T00:00:59;19.30;46.40
40289;DHT22;28991;52.028;5.526;2023-04-25T00:03:24;19.40;46.50
40289;DHT22;28991;52.028;5.526;2023-04-25T00:05:50;19.30;46.50
40289;DHT22;28991;52.028;5.526;2023-04-25T00:08:17;19.30;46.40
40289;DHT22;28991;52.028;5.526;2023-04-25T00:10:42;19.30;46.40
40289;DHT22;28991;52.028;5.526;2023-04-25T00:13:08;19.30;47.00
40289;DHT22;28991;52.028;5.526;2023-04-25T00:15:34;19.30;46.50
40289;DHT22;28991;52.028;5.526;2023-04-25T00:18:01;19.20;46.50
40289;DHT22;28991;52.028;5.526;2023-04-25T00:20:27;19.30;46.50
40289;DHT22;28991;52.028;5.526;2023-04-25T00:22:52;19.20;46.50
40289;DHT22;28991;52.028;5.526;2023-04-25T00:25:18;20.30;47.10
40289;DHT22;28991;52.028;5.526;2023-04-25T00:27:44;19.30;46.50
40289;DHT22;28991;52.028;5.526;2023-04-25T00:30:10;19.20;46.50
40289;DHT22;28991;52.028;5.526;2023-04-25T00:32:36;19.30;46.60
40289;DHT22;28991;52.028;5.526;2023-04-25T00:35:02;19.20;46.60
40289;DHT22;28991;52.028;5.526;2023-04-25T00:37:27;19.20;46.50
40289;DHT22;28991;52.028;5.526;2023-04-25T00:39:53;19.30;46.60
40289;DHT22;28991;52.028;5.526;2023-04-25T00:42:20;19.30;46.60
40289;DHT22;28991;52.028;5.526;2023-04-25T00:44:46;19.20;46.60
40289;DHT22;28991;52.028;5.526;2023-04-25T00:47:13;19.20;46.60
40289;DHT22;28991;52.028;5.526;2023-04-25T00:49:39;19.30;46.70
40289;DHT22;28991;52.028;5.526;2023-04-25T00:52:04;19.30;46.70
40289;DHT22;28991;52.028;5.526;2023-04-25T00:54:30;19.30;46.70
40289;DHT22;28991;52.028;5.526;2023-04-25T00:56:56;19.20;46.60
40289;DHT22;28991;52.028;5.526;2023-04-25T00:59:22;19.30;46.70
40289;DHT22;28991;52.028;5.526;2023-04-25T01:01:47;19.20;46.60
40289;DHT22;28991;52.028;5.526;2023-04-25T01:04:13;19.20;46.60
40289;DHT22;28991;52.028;5.526;2023-04-25T01:06:39;19.20;46.70
40289;DHT22;28991;52.028;5.526;2023-04-25T01:09:05;19.20;46.70
40289;DHT22;28991;52.028;5.526;2023-04-25T01:11:32;19.30;46.70
40289;DHT22;28991;52.028;5.526;2023-04-25T01:13:57;19.20;46.70
40289;DHT22;28991;52.028;5.526;2023-04-25T01:16:23;19.20;46.70
40289;DHT22;28991;52.028;5.526;2023-04-25T01:18:50;19.20;46.70
40289;DHT22;28991;52.028;5.526;2023-04-25T01:21:16;19.30;46.80
40289;DHT22;28991;52.028;5.526;2023-04-25T01:23:43;19.20;46.70
40289;DHT22;28991;52.028;5.526;2023-04-25T01:26:10;19.20;46.70
40289;DHT22;28991;52.028;5.526;2023-04-25T01:28:35;19.20;46.70
40289;DHT22;28991;52.028;5.526;2023-04-25T01:31:01;19.30;46.80
40289;DHT22;28991;52.028;5.526;2023-04-25T01:33:27;19.20;46.70
40289;DHT22;28991;52.028;5.526;2023-04-25T01:35:53;19.40;46.90
40289;DHT22;28991;52.028;5.526;2023-04-25T01:38:18;19.20;46.80
40289;DHT22;28991;52.028;5.526;2023-04-25T01:40:45;19.20;46.80
40289;DHT22;28991;52.028;5.526;2023-04-25T01:43:12;19.20;46.80
40289;DHT22;28991;52.028;5.526;2023-04-25T01:45:40;19.10;46.70
40289;DHT22;28991;52.028;5.526;2023-04-25T01:48:10;19.20;46.80
40289;DHT22;28991;52.028;5.526;2023-04-25T01:50:38;19.20;46.80
40289;DHT22;28991;52.028;5.526;2023-04-25T01:53:04;19.20;46.80
40289;DHT22;28991;52.028;5.526;2023-04-25T01:55:30;19.20;46.80
40289;DHT22;28991;52.028;5.526;2023-04-25T01:57:56;19.20;46.80
40289;DHT22;28991;52.028;5.526;2023-04-25T02:00:22;19.20;46.80
40289;DHT22;28991;52.028;5.526;2023-04-25T02:02:48;19.20;46.90
40289;DHT22;28991;52.028;5.526;2023-04-25T02:05:16;19.20;46.80
40289;DHT22;28991;52.028;5.526;2023-04-25T02:07:42;19.20;46.90
40289;DHT22;28991;52.028;5.526;2023-04-25T02:10:08;19.30;46.90
40289;DHT22;28991;52.028;5.526;2023-04-25T02:12:35;19.20;46.90
40289;DHT22;28991;52.028;5.526;2023-04-25T02:15:01;19.10;46.80
40289;DHT22;28991;52.028;5.526;2023-04-25T02:17:27;19.20;46.90
40289;DHT22;28991;52.028;5.526;2023-04-25T02:19:52;19.10;46.80
40289;DHT22;28991;52.028;5.526;2023-04-25T02:22:18;19.10;46.90
40289;DHT22;28991;52.028;5.526;2023-04-25T02:24:43;19.20;46.90
40289;DHT22;28991;52.028;5.526;2023-04-25T02:27:09;19.20;46.90
40289;DHT22;28991;52.028;5.526;2023-04-25T02:29:35;19.10;46.90
40289;DHT22;28991;52.028;5.526;2023-04-25T02:32:00;19.20;46.90
40289;DHT22;28991;52.028;5.526;2023-04-25T02:34:26;19.20;46.90
40289;DHT22;28991;52.028;5.526;2023-04-25T02:36:51;19.20;47.00
40289;DHT22;28991;52.028;5.526;2023-04-25T02:39:17;19.20;47.00
40289;DHT22;28991;52.028;5.526;2023-04-25T02:41:43;19.10;46.90
40289;DHT22;28991;52.028;5.526;2023-04-25T02:44:08;19.10;46.90
40289;DHT22;28991;52.028;5.526;2023-04-25T02:46:34;19.20;47.60
40289;DHT22;28991;52.028;5.526;2023-04-25T02:49:00;19.10;47.00
40289;DHT22;28991;52.028;5.526;2023-04-25T02:51:25;19.10;47.00
40289;DHT22;28991;52.028;5.526;2023-04-25T02:53:51;19.70;47.30
40289;DHT22;28991;52.028;5.526;2023-04-25T02:56:17;19.10;47.00
40289;DHT22;28991;52.028;5.526;2023-04-25T02:58:42;19.30;47.10
40289;DHT22;28991;52.028;5.526;2023-04-25T03:01:08;19.10;47.00
40289;DHT22;28991;52.028;5.526;2023-04-25T03:03:33;19.10;47.00
40289;DHT22;28991;52.028;5.526;2023-04-25T03:05:59;19.10;47.00
40289;DHT22;28991;52.028;5.526;2023-04-25T03:08:25;19.20;47.10
40289;DHT22;28991;52.028;5.526;2023-04-25T03:10:52;19.10;47.00
40289;DHT22;28991;52.028;5.526;2023-04-25T03:13:20;19.10;47.00
40289;DHT22;28991;52.028;5.526;2023-04-25T03:15:46;19.10;47.00
40289;DHT22;28991;52.028;5.526;2023-04-25T03:18:11;19.10;47.00
40289;DHT22;28991;52.028;5.526;2023-04-25T03:20:37;19.10;47.10
40289;DHT22;28991;52.028;5.526;2023-04-25T03:23:04;19.10;47.10
40289;DHT22;28991;52.028;5.526;2023-04-25T03:25:30;19.10;47.10
40289;DHT22;28991;52.028;5.526;2023-04-25T03:27:56;19.10;47.10
40289;DHT22;28991;52.028;5.526;2023-04-25T03:30:22;19.10;47.10
40289;DHT22;28991;52.028;5.526;2023-04-25T03:32:47;19.10;47.10
40289;DHT22;28991;52.028;5.526;2023-04-25T03:35:13;19.00;47.00
40289;DHT22;28991;52.028;5.526;2023-04-25T03:37:38;19.10;47.10
40289;DHT22;28991;52.028;5.526;2023-04-25T03:40:06;19.10;47.20
40289;DHT22;28991;52.028;5.526;2023-04-25T03:42:32;19.00;47.00
40289;DHT22;28991;52.028;5.526;2023-04-25T03:44:57;19.10;47.10
40289;DHT22;28991;52.028;5.526;2023-04-25T03:47:23;19.00;47.10
40289;DHT22;28991;52.028;5.526;2023-04-25T03:49:48;19.00;47.10
40289;DHT22;28991;52.028;5.526;2023-04-25T03:52:17;19.20;47.20
40289;DHT22;28991;52.028;5.526;2023-04-25T03:54:42;19.00;47.10
40289;DHT22;28991;52.028;5.526;2023-04-25T03:57:08;19.00;47.00
40289;DHT22;28991;52.028;5.526;2023-04-25T03:59:33;19.10;47.10
40289;DHT22;28991;52.028;5.526;2023-04-25T04:01:59;19.00;47.10
40289;DHT22;28991;52.028;5.526;2023-04-25T04:04:24;19.00;47.10
40289;DHT22;28991;52.028;5.526;2023-04-25T04:06:50;19.10;47.20
40289;DHT22;28991;52.028;5.526;2023-04-25T04:09:17;19.00;47.10
40289;DHT22;28991;52.028;5.526;2023-04-25T04:11:43;19.10;47.20
40289;DHT22;28991;52.028;5.526;2023-04-25T04:14:08;19.00;47.20
40289;DHT22;28991;52.028;5.526;2023-04-25T04:16:35;19.00;47.10
40289;DHT22;28991;52.028;5.526;2023-04-25T04:19:02;19.00;47.10
40289;DHT22;28991;52.028;5.526;2023-04-25T04:21:27;19.00;47.20
40289;DHT22;28991;52.028;5.526;2023-04-25T04:23:53;19.10;47.20
40289;DHT22;28991;52.028;5.526;2023-04-25T04:26:20;19.10;47.20
40289;DHT22;28991;52.028;5.526;2023-04-25T04:28:49;19.00;47.20
40289;DHT22;28991;52.028;5.526;2023-04-25T04:31:17;19.90;47.70
40289;DHT22;28991;52.028;5.526;2023-04-25T04:33:45;19.00;47.20
40289;DHT22;28991;52.028;5.526;2023-04-25T04:36:11;19.00;47.20
40289;DHT22;28991;52.028;5.526;2023-04-25T04:38:36;19.10;47.20
40289;DHT22;28991;52.028;5.526;2023-04-25T04:41:02;19.10;47.20
40289;DHT22;28991;52.028;5.526;2023-04-25T04:43:28;19.00;47.20
40289;DHT22;28991;52.028;5.526;2023-04-25T04:45:55;19.10;47.20
40289;DHT22;28991;52.028;5.526;2023-04-25T04:48:24;19.00;47.10
40289;DHT22;28991;52.028;5.526;2023-04-25T04:50:49;19.00;47.10
40289;DHT22;28991;52.028;5.526;2023-04-25T04:53:15;19.00;47.20
40289;DHT22;28991;52.028;5.526;2023-04-25T04:55:41;19.00;47.10
40289;DHT22;28991;52.028;5.526;2023-04-25T04:58:07;19.30;47.30
40289;DHT22;28991;52.028;5.526;2023-04-25T05:00:32;19.00;47.20
40289;DHT22;28991;52.028;5.526;2023-04-25T05:02:58;19.10;47.20
40289;DHT22;28991;52.028;5.526;2023-04-25T05:05:24;19.00;47.10
40289;DHT22;28991;52.028;5.526;2023-04-25T05:07:50;19.00;47.10
40289;DHT22;28991;52.028;5.526;2023-04-25T05:10:17;19.00;47.00
40289;DHT22;28991;52.028;5.526;2023-04-25T05:12:42;19.10;46.00
40289;DHT22;28991;52.028;5.526;2023-04-25T05:15:08;19.10;45.20
40289;DHT22;28991;52.028;5.526;2023-04-25T05:17:34;19.20;44.70
40289;DHT22;28991;52.028;5.526;2023-04-25T05:19:59;19.30;44.70
40289;DHT22;28991;52.028;5.526;2023-04-25T05:22:25;19.40;44.60
40289;DHT22;28991;52.028;5.526;2023-04-25T05:24:51;19.70;43.80
40289;DHT22;28991;52.028;5.526;2023-04-25T05:27:18;19.40;43.90
40289;DHT22;28991;52.028;5.526;2023-04-25T05:29:44;19.40;43.50
40289;DHT22;28991;52.028;5.526;2023-04-25T05:32:09;19.50;43.10
40289;DHT22;28991;52.028;5.526;2023-04-25T05:34:35;19.60;43.50
40289;DHT22;28991;52.028;5.526;2023-04-25T05:37:01;19.60;43.40
40289;DHT22;28991;52.028;5.526;2023-04-25T05:39:26;19.70;43.50
40289;DHT22;28991;52.028;5.526;2023-04-25T05:41:52;19.60;43.80
40289;DHT22;28991;52.028;5.526;2023-04-25T05:44:18;19.80;43.40
40289;DHT22;28991;52.028;5.526;2023-04-25T05:46:43;20.00;43.30
40289;DHT22;28991;52.028;5.526;2023-04-25T05:49:09;19.90;43.00
40289;DHT22;28991;52.028;5.526;2023-04-25T05:51:35;20.00;42.50
40289;DHT22;28991;52.028;5.526;2023-04-25T05:54:00;20.00;42.30
40289;DHT22;28991;52.028;5.526;2023-04-25T05:56:26;20.00;42.30
40289;DHT22;28991;52.028;5.526;2023-04-25T05:58:51;20.20;43.10
40289;DHT22;28991;52.028;5.526;2023-04-25T06:01:17;20.10;43.20
40289;DHT22;28991;52.028;5.526;2023-04-25T06:03:43;20.10;43.20
40289;DHT22;28991;52.028;5.526;2023-04-25T06:06:09;19.30;42.80
40289;DHT22;28991;52.028;5.526;2023-04-25T06:08:35;20.10;41.10
40289;DHT22;28991;52.028;5.526;2023-04-25T06:11:00;20.20;42.30
40289;DHT22;28991;52.028;5.526;2023-04-25T06:13:26;20.10;42.50
40289;DHT22;28991;52.028;5.526;2023-04-25T06:15:52;20.10;42.30
40289;DHT22;28991;52.028;5.526;2023-04-25T06:18:17;20.20;42.00
40289;DHT22;28991;52.028;5.526;2023-04-25T06:20:43;20.20;41.50
40289;DHT22;28991;52.028;5.526;2023-04-25T06:23:08;20.20;41.40
40289;DHT22;28991;52.028;5.526;2023-04-25T06:25:34;20.30;42.00
40289;DHT22;28991;52.028;5.526;2023-04-25T06:28:00;20.30;42.00
40289;DHT22;28991;52.028;5.526;2023-04-25T06:30:25;20.30;41.60
40289;DHT22;28991;52.028;5.526;2023-04-25T06:32:52;20.30;41.80
40289;DHT22;28991;52.028;5.526;2023-04-25T06:35:18;20.40;41.80
40289;DHT22;28991;52.028;5.526;2023-04-25T06:37:44;20.50;41.80
40289;DHT22;28991;52.028;5.526;2023-04-25T06:40:10;20.40;41.60
40289;DHT22;28991;52.028;5.526;2023-04-25T06:42:36;20.50;40.70
40289;DHT22;28991;52.028;5.526;2023-04-25T06:45:02;20.50;40.20
40289;DHT22;28991;52.028;5.526;2023-04-25T06:47:27;20.60;41.00
40289;DHT22;28991;52.028;5.526;2023-04-25T06:49:53;20.60;41.00
40289;DHT22;28991;52.028;5.526;2023-04-25T06:52:19;20.70;40.90
40289;DHT22;28991;52.028;5.526;2023-04-25T06:54:44;20.80;40.90
40289;DHT22;28991;52.028;5.526;2023-04-25T06:57:10;20.90;40.70
40289;DHT22;28991;52.028;5.526;2023-04-25T06:59:36;20.90;40.60
40289;DHT22;28991;52.028;5.526;2023-04-25T07:02:01;20.90;40.50
40289;DHT22;28991;52.028;5.526;2023-04-25T07:04:27;21.00;40.30
40289;DHT22;28991;52.028;5.526;2023-04-25T07:06:53;21.10;40.30
40289;DHT22;28991;52.028;5.526;2023-04-25T07:09:18;21.20;40.20
40289;DHT22;28991;52.028;5.526;2023-04-25T07:11:44;21.30;40.00
40289;DHT22;28991;52.028;5.526;2023-04-25T07:14:10;21.40;39.70
40289;DHT22;28991;52.028;5.526;2023-04-25T07:16:35;21.50;39.60
40289;DHT22;28991;52.028;5.526;2023-04-25T07:19:01;21.60;39.50
40289;DHT22;28991;52.028;5.526;2023-04-25T07:21:26;21.60;38.50
40289;DHT22;28991;52.028;5.526;2023-04-25T07:23:52;21.60;39.60
40289;DHT22;28991;52.028;5.526;2023-04-25T07:26:17;21.50;39.60
40289;DHT22;28991;52.028;5.526;2023-04-25T07:28:43;21.50;39.70
40289;DHT22;28991;52.028;5.526;2023-04-25T07:31:09;21.40;39.80
40289;DHT22;28991;52.028;5.526;2023-04-25T07:33:35;21.30;40.00
40289;DHT22;28991;52.028;5.526;2023-04-25T07:36:00;21.20;39.90
40289;DHT22;28991;52.028;5.526;2023-04-25T07:38:26;21.10;40.00
40289;DHT22;28991;52.028;5.526;2023-04-25T07:40:52;21.10;39.80
40289;DHT22;28991;52.028;5.526;2023-04-25T07:43:17;21.00;39.90
40289;DHT22;28991;52.028;5.526;2023-04-25T07:45:44;21.00;39.80
40289;DHT22;28991;52.028;5.526;2023-04-25T07:48:09;21.00;39.90
40289;DHT22;28991;52.028;5.526;2023-04-25T07:50:36;21.20;40.10
40289;DHT22;28991;52.028;5.526;2023-04-25T07:53:01;21.00;39.90
40289;DHT22;28991;52.028;5.526;2023-04-25T07:55:27;20.90;39.80
40289;DHT22;28991;52.028;5.526;2023-04-25T07:57:53;20.90;40.00
40289;DHT22;28991;52.028;5.526;2023-04-25T08:00:19;20.90;40.10
40289;DHT22;28991;52.028;5.526;2023-04-25T08:02:44;20.90;40.10
40289;DHT22;28991;52.028;5.526;2023-04-25T08:05:10;20.90;40.10
40289;DHT22;28991;52.028;5.526;2023-04-25T08:07:40;20.80;40.60
40289;DHT22;28991;52.028;5.526;2023-04-25T08:10:06;20.80;40.60
40289;DHT22;28991;52.028;5.526;2023-04-25T08:12:32;20.80;38.90
40289;DHT22;28991;52.028;5.526;2023-04-25T08:14:57;20.80;39.70
40289;DHT22;28991;52.028;5.526;2023-04-25T08:17:23;20.70;39.90
40289;DHT22;28991;52.028;5.526;2023-04-25T08:19:49;20.70;39.70
40289;DHT22;28991;52.028;5.526;2023-04-25T08:22:14;20.70;39.50
40289;DHT22;28991;52.028;5.526;2023-04-25T08:24:41;20.80;39.80
40289;DHT22;28991;52.028;5.526;2023-04-25T08:27:06;20.80;39.10
40289;DHT22;28991;52.028;5.526;2023-04-25T08:29:33;20.70;39.60
40289;DHT22;28991;52.028;5.526;2023-04-25T08:31:59;20.70;39.60
40289;DHT22;28991;52.028;5.526;2023-04-25T08:34:25;20.70;39.50
40289;DHT22;28991;52.028;5.526;2023-04-25T08:36:51;20.70;39.40
40289;DHT22;28991;52.028;5.526;2023-04-25T08:39:17;20.60;39.00
40289;DHT22;28991;52.028;5.526;2023-04-25T08:41:43;20.70;39.10
40289;DHT22;28991;52.028;5.526;2023-04-25T08:44:10;20.70;38.80
40289;DHT22;28991;52.028;5.526;2023-04-25T08:46:38;20.70;38.40
40289;DHT22;28991;52.028;5.526;2023-04-25T08:49:07;20.70;38.70
40289;DHT22;28991;52.028;5.526;2023-04-25T08:51:33;21.20;38.80
40289;DHT22;28991;52.028;5.526;2023-04-25T08:54:10;20.60;38.60
40289;DHT22;28991;52.028;5.526;2023-04-25T08:56:37;20.60;38.50
40289;DHT22;28991;52.028;5.526;2023-04-25T08:59:03;20.60;38.20
40289;DHT22;28991;52.028;5.526;2023-04-25T09:01:30;20.60;38.30
40289;DHT22;28991;52.028;5.526;2023-04-25T09:03:57;20.60;38.30
40289;DHT22;28991;52.028;5.526;2023-04-25T09:06:23;20.70;38.20
40289;DHT22;28991;52.028;5.526;2023-04-25T09:08:50;20.60;38.00
40289;DHT22;28991;52.028;5.526;2023-04-25T09:11:15;20.60;38.00
40289;DHT22;28991;52.028;5.526;2023-04-25T09:13:41;20.60;38.00
40289;DHT22;28991;52.028;5.526;2023-04-25T09:16:06;20.50;38.00
40289;DHT22;28991;52.028;5.526;2023-04-25T09:18:34;20.50;37.80
40289;DHT22;28991;52.028;5.526;2023-04-25T09:21:08;20.70;38.00
40289;DHT22;28991;52.028;5.526;2023-04-25T09:23:46;20.60;37.50
40289;DHT22;28991;52.028;5.526;2023-04-25T09:26:16;20.60;37.70
40289;DHT22;28991;52.028;5.526;2023-04-25T09:28:42;20.60;38.00
40289;DHT22;28991;52.028;5.526;2023-04-25T09:31:10;20.60;38.10
40289;DHT22;28991;52.028;5.526;2023-04-25T09:33:40;20.60;37.90
40289;DHT22;28991;52.028;5.526;2023-04-25T09:36:10;20.60;37.70
40289;DHT22;28991;52.028;5.526;2023-04-25T09:38:43;20.70;37.60
40289;DHT22;28991;52.028;5.526;2023-04-25T09:41:10;20.80;37.50
40289;DHT22;28991;52.028;5.526;2023-04-25T09:43:36;20.70;37.20
40289;DHT22;28991;52.028;5.526;2023-04-25T09:46:02;20.70;37.40
40289;DHT22;28991;52.028;5.526;2023-04-25T09:48:32;20.70;37.50
40289;DHT22;28991;52.028;5.526;2023-04-25T09:53:45;20.70;36.90
40289;DHT22;28991;52.028;5.526;2023-04-25T09:56:12;20.80;37.40
40289;DHT22;28991;52.028;5.526;2023-04-25T09:58:40;20.60;37.00
40289;DHT22;28991;52.028;5.526;2023-04-25T10:01:07;20.70;38.30
40289;DHT22;28991;52.028;5.526;2023-04-25T10:03:35;20.60;37.70
40289;DHT22;28991;52.028;5.526;2023-04-25T10:06:03;20.60;37.30
40289;DHT22;28991;52.028;5.526;2023-04-25T10:08:35;20.90;37.30
40289;DHT22;28991;52.028;5.526;2023-04-25T10:11:04;20.70;36.80
40289;DHT22;28991;52.028;5.526;2023-04-25T10:13:31;20.60;36.80
40289;DHT22;28991;52.028;5.526;2023-04-25T10:15:58;20.70;36.70
40289;DHT22;28991;52.028;5.526;2023-04-25T10:18:25;20.70;36.80
40289;DHT22;28991;52.028;5.526;2023-04-25T10:20:54;20.70;36.50
40289;DHT22;28991;52.028;5.526;2023-04-25T10:23:20;20.70;36.90
40289;DHT22;28991;52.028;5.526;2023-04-25T10:25:46;20.70;37.20
40289;DHT22;28991;52.028;5.526;2023-04-25T10:28:12;20.70;37.30
40289;DHT22;28991;52.028;5.526;2023-04-25T10:30:37;20.70;37.40
40289;DHT22;28991;52.028;5.526;2023-04-25T10:33:39;20.70;37.10
40289;DHT22;28991;52.028;5.526;2023-04-25T10:36:24;20.80;36.80
40289;DHT22;28991;52.028;5.526;2023-04-25T10:38:52;20.90;36.60
40289;DHT22;28991;52.028;5.526;2023-04-25T10:41:20;21.00;36.50
40289;DHT22;28991;52.028;5.526;2023-04-25T10:43:47;21.10;36.20
40289;DHT22;28991;52.028;5.526;2023-04-25T10:46:23;21.10;36.10
40289;DHT22;28991;52.028;5.526;2023-04-25T10:48:49;21.10;36.10
40289;DHT22;28991;52.028;5.526;2023-04-25T10:51:21;21.30;36.40
40289;DHT22;28991;52.028;5.526;2023-04-25T10:56:24;21.10;36.10
40289;DHT22;28991;52.028;5.526;2023-04-25T10:58:50;21.00;36.10
40289;DHT22;28991;52.028;5.526;2023-04-25T11:01:21;21.30;36.20
40289;DHT22;28991;52.028;5.526;2023-04-25T11:03:46;21.60;36.20
40289;DHT22;28991;52.028;5.526;2023-04-25T11:09:36;20.90;35.70
40289;DHT22;28991;52.028;5.526;2023-04-25T11:12:03;20.90;35.30
40289;DHT22;28991;52.028;5.526;2023-04-25T11:14:29;20.90;35.20
40289;DHT22;28991;52.028;5.526;2023-04-25T11:16:56;20.90;35.50
40289;DHT22;28991;52.028;5.526;2023-04-25T11:19:22;20.90;35.00
40289;DHT22;28991;52.028;5.526;2023-04-25T11:21:48;20.90;35.30
40289;DHT22;28991;52.028;5.526;2023-04-25T11:24:13;20.80;35.60
40289;DHT22;28991;52.028;5.526;2023-04-25T11:26:42;20.90;35.30
40289;DHT22;28991;52.028;5.526;2023-04-25T11:29:08;20.80;34.80
40289;DHT22;28991;52.028;5.526;2023-04-25T11:31:33;20.80;35.40
40289;DHT22;28991;52.028;5.526;2023-04-25T11:33:59;20.90;35.20
40289;DHT22;28991;52.028;5.526;2023-04-25T11:36:26;20.80;35.60
40289;DHT22;28991;52.028;5.526;2023-04-25T11:38:52;20.80;35.90
40289;DHT22;28991;52.028;5.526;2023-04-25T11:41:21;20.80;35.20
40289;DHT22;28991;52.028;5.526;2023-04-25T11:43:48;20.80;35.00
40289;DHT22;28991;52.028;5.526;2023-04-25T11:46:14;20.90;35.10
40289;DHT22;28991;52.028;5.526;2023-04-25T11:48:41;20.90;35.00
40289;DHT22;28991;52.028;5.526;2023-04-25T11:51:07;20.90;35.20
40289;DHT22;28991;52.028;5.526;2023-04-25T11:53:32;20.90;34.90
40289;DHT22;28991;52.028;5.526;2023-04-25T11:55:58;20.90;34.90
40289;DHT22;28991;52.028;5.526;2023-04-25T11:58:25;21.30;35.60
40289;DHT22;28991;52.028;5.526;2023-04-25T12:00:50;20.90;35.60
40289;DHT22;28991;52.028;5.526;2023-04-25T12:03:17;20.90;35.80
40289;DHT22;28991;52.028;5.526;2023-04-25T12:05:44;20.90;36.00
40289;DHT22;28991;52.028;5.526;2023-04-25T12:08:14;20.90;36.10
40289;DHT22;28991;52.028;5.526;2023-04-25T12:10:41;20.80;36.20
40289;DHT22;28991;52.028;5.526;2023-04-25T12:13:22;20.90;35.80
40289;DHT22;28991;52.028;5.526;2023-04-25T12:15:47;21.30;36.30
40289;DHT22;28991;52.028;5.526;2023-04-25T12:18:13;20.90;36.10
40289;DHT22;28991;52.028;5.526;2023-04-25T12:20:39;20.90;36.20
40289;DHT22;28991;52.028;5.526;2023-04-25T12:23:07;20.90;36.00
40289;DHT22;28991;52.028;5.526;2023-04-25T12:25:42;20.90;35.80
40289;DHT22;28991;52.028;5.526;2023-04-25T12:28:16;20.90;35.90
40289;DHT22;28991;52.028;5.526;2023-04-25T12:31:04;20.90;35.80
40289;DHT22;28991;52.028;5.526;2023-04-25T12:33:32;20.90;35.70
40289;DHT22;28991;52.028;5.526;2023-04-25T12:35:58;20.90;35.90
40289;DHT22;28991;52.028;5.526;2023-04-25T12:38:29;20.90;35.80
40289;DHT22;28991;52.028;5.526;2023-04-25T12:40:56;20.90;35.80
40289;DHT22;28991;52.028;5.526;2023-04-25T12:43:22;20.90;35.60
40289;DHT22;28991;52.028;5.526;2023-04-25T12:45:52;20.90;35.40
40289;DHT22;28991;52.028;5.526;2023-04-25T12:48:18;20.90;35.40
40289;DHT22;28991;52.028;5.526;2023-04-25T12:50:44;20.90;35.20
40289;DHT22;28991;52.028;5.526;2023-04-25T12:53:10;20.90;35.30
40289;DHT22;28991;52.028;5.526;2023-04-25T12:55:37;20.90;35.20
40289;DHT22;28991;52.028;5.526;2023-04-25T12:58:02;20.90;35.20
40289;DHT22;28991;52.028;5.526;2023-04-25T13:00:29;20.90;35.10
40289;DHT22;28991;52.028;5.526;2023-04-25T13:02:54;20.90;35.00
40289;DHT22;28991;52.028;5.526;2023-04-25T13:05:20;20.90;34.90
40289;DHT22;28991;52.028;5.526;2023-04-25T13:07:46;19.20;34.00
40289;DHT22;28991;52.028;5.526;2023-04-25T13:10:11;20.90;34.30
40289;DHT22;28991;52.028;5.526;2023-04-25T13:12:37;20.90;34.90
40289;DHT22;28991;52.028;5.526;2023-04-25T13:15:03;20.90;34.90
40289;DHT22;28991;52.028;5.526;2023-04-25T13:17:28;21.00;34.70
40289;DHT22;28991;52.028;5.526;2023-04-25T13:19:54;20.90;34.40
40289;DHT22;28991;52.028;5.526;2023-04-25T13:22:19;21.00;34.60
40289;DHT22;28991;52.028;5.526;2023-04-25T13:24:46;21.00;34.40
40289;DHT22;28991;52.028;5.526;2023-04-25T13:27:12;21.00;34.40
40289;DHT22;28991;52.028;5.526;2023-04-25T13:29:37;21.20;34.30
40289;DHT22;28991;52.028;5.526;2023-04-25T13:32:08;21.10;34.40
40289;DHT22;28991;52.028;5.526;2023-04-25T13:34:34;21.00;34.00
40289;DHT22;28991;52.028;5.526;2023-04-25T13:36:59;21.00;34.30
40289;DHT22;28991;52.028;5.526;2023-04-25T13:39:25;21.00;34.00
40289;DHT22;28991;52.028;5.526;2023-04-25T13:41:51;21.10;34.10
40289;DHT22;28991;52.028;5.526;2023-04-25T13:44:16;21.00;34.10
40289;DHT22;28991;52.028;5.526;2023-04-25T13:46:42;21.00;33.90
40289;DHT22;28991;52.028;5.526;2023-04-25T13:49:07;21.00;34.00
40289;DHT22;28991;52.028;5.526;2023-04-25T13:51:33;20.90;33.90
40289;DHT22;28991;52.028;5.526;2023-04-25T13:53:59;20.80;33.80
40289;DHT22;28991;52.028;5.526;2023-04-25T13:56:25;21.00;33.60
40289;DHT22;28991;52.028;5.526;2023-04-25T13:58:51;21.00;33.50
40289;DHT22;28991;52.028;5.526;2023-04-25T14:01:17;20.90;33.50
40289;DHT22;28991;52.028;5.526;2023-04-25T14:03:43;21.00;33.30
40289;DHT22;28991;52.028;5.526;2023-04-25T14:06:08;20.90;33.20
40289;DHT22;28991;52.028;5.526;2023-04-25T14:08:34;21.20;33.40
40289;DHT22;28991;52.028;5.526;2023-04-25T14:11:00;21.00;33.30
40289;DHT22;28991;52.028;5.526;2023-04-25T14:13:26;21.00;33.30
40289;DHT22;28991;52.028;5.526;2023-04-25T14:15:51;21.00;32.80
40289;DHT22;28991;52.028;5.526;2023-04-25T14:18:17;21.00;33.50
40289;DHT22;28991;52.028;5.526;2023-04-25T14:20:42;21.00;33.40
40289;DHT22;28991;52.028;5.526;2023-04-25T14:23:08;21.00;33.70
40289;DHT22;28991;52.028;5.526;2023-04-25T14:25:34;21.00;33.20
40289;DHT22;28991;52.028;5.526;2023-04-25T14:28:01;21.00;33.50
40289;DHT22;28991;52.028;5.526;2023-04-25T14:30:26;21.10;33.40
40289;DHT22;28991;52.028;5.526;2023-04-25T14:32:52;21.00;33.40
40289;DHT22;28991;52.028;5.526;2023-04-25T14:35:18;21.10;33.70
40289;DHT22;28991;52.028;5.526;2023-04-25T14:37:43;21.00;33.70
40289;DHT22;28991;52.028;5.526;2023-04-25T14:40:10;21.10;33.80
40289;DHT22;28991;52.028;5.526;2023-04-25T14:42:36;21.00;33.80
40289;DHT22;28991;52.028;5.526;2023-04-25T14:45:03;21.00;33.90
40289;DHT22;28991;52.028;5.526;2023-04-25T14:47:29;20.90;34.00
40289;DHT22;28991;52.028;5.526;2023-04-25T14:49:55;21.00;34.20
40289;DHT22;28991;52.028;5.526;2023-04-25T14:52:21;20.90;34.30
40289;DHT22;28991;52.028;5.526;2023-04-25T14:54:47;20.80;34.30
40289;DHT22;28991;52.028;5.526;2023-04-25T14:57:13;20.80;34.40
40289;DHT22;28991;52.028;5.526;2023-04-25T14:59:38;20.80;34.40
40289;DHT22;28991;52.028;5.526;2023-04-25T15:02:04;20.90;34.50
40289;DHT22;28991;52.028;5.526;2023-04-25T15:04:30;20.80;34.50
40289;DHT22;28991;52.028;5.526;2023-04-25T15:06:55;20.80;34.60
40289;DHT22;28991;52.028;5.526;2023-04-25T15:09:21;20.90;34.70
40289;DHT22;28991;52.028;5.526;2023-04-25T15:11:48;20.70;34.60
40289;DHT22;28991;52.028;5.526;2023-04-25T15:14:14;20.70;34.70
40289;DHT22;28991;52.028;5.526;2023-04-25T15:16:39;20.70;34.80
40289;DHT22;28991;52.028;5.526;2023-04-25T15:19:05;20.70;34.80
40289;DHT22;28991;52.028;5.526;2023-04-25T15:21:31;20.60;34.90
40289;DHT22;28991;52.028;5.526;2023-04-25T15:23:56;20.60;34.90
40289;DHT22;28991;52.028;5.526;2023-04-25T15:26:22;20.70;35.00
40289;DHT22;28991;52.028;5.526;2023-04-25T15:28:48;20.60;35.10
40289;DHT22;28991;52.028;5.526;2023-04-25T15:31:14;20.60;35.10
40289;DHT22;28991;52.028;5.526;2023-04-25T15:33:39;20.60;35.20